CDT,Max TemperatureF,Mean TemperatureF,Min TemperatureF,Max Dew PointF,MeanDew PointF,Min DewpointF,Max Humidity, Mean Humidity, Min Humidity, Max Sea Level PressureIn, Mean Sea Level PressureIn, Min Sea Level PressureIn, Max VisibilityMiles, Mean VisibilityMiles, Min VisibilityMiles, Max Wind SpeedMPH, Mean Wind SpeedMPH, Max Gust SpeedMPH,PrecipitationIn, CloudCover, Events, WindDirDegrees
2014-3-1,27,17,6,17,9,0,84,76,67,30.50,30.29,30.07,10,4,1,26,18,31,0.00,8,Rain-Snow,19
2014-3-2,9,6,3,-1,-6,-9,76,63,49,30.64,30.57,30.46,10,9,3,25,17,31,0.00,6,Snow,10
2014-3-3,20,10,0,4,-4,-11,69,57,45,30.65,30.48,30.24,10,10,10,16,9,24,0.00,0,,150
2014-3-4,38,25,12,23,14,-1,66,59,52,30.24,30.08,29.98,10,10,10,20,10,23,0.00,0,,177
2014-3-5,36,32,27,26,24,20,85,71,56,30.33,30.23,30.04,10,5,1,18,9,22,T,6,Snow,9
2014-3-6,44,36,27,34,29,25,92,80,67,30.31,30.14,29.88,10,4,0,22,11,30,0.00,6,Fog,179
2014-3-7,56,44,31,35,31,21,89,70,50,30.16,29.91,29.81,10,7,4,29,11,37,T,3,Snow,73
2014-3-8,45,35,24,21,18,13,75,52,28,30.38,30.30,30.18,10,9,2,24,14,29,T,4,Snow,346
2014-3-9,69,46,22,32,24,15,77,49,20,30.36,30.14,29.91,10,10,10,29,14,35,0.00,0,,196
2014-3-10,81,59,36,32,28,24,64,39,14,29.91,29.79,29.62,10,10,9,23,8,26,0.00,0,,216
2014-3-11,67,50,33,44,33,28,89,60,30,30.15,29.73,29.43,10,8,1,43,20,50,0.05,3,Rain-Snow,338
2014-3-12,60,44,28,33,27,22,92,58,24,30.31,30.22,30.16,10,10,10,31,13,38,0.00,1,,299
2014-3-13,73,50,28,27,20,13,69,35,11,30.15,29.99,29.73,10,10,10,23,11,38,0.00,0,,208
2014-3-14,67,51,34,28,20,14,56,35,13,30.01,29.91,29.72,10,10,10,28,11,34,0.00,0,Rain,302
2014-3-15,76,55,33,31,25,20,59,37,14,30.08,29.87,29.74,10,10,10,37,14,46,T,1,,209
2014-3-16,47,36,24,25,18,13,78,52,26,30.35,30.21,30.10,10,10,8,35,17,42,T,3,Snow,11
2014-3-17,64,43,21,28,22,13,68,47,25,30.11,29.74,29.41,10,10,10,29,17,37,0.00,0,,180
2014-3-18,62,49,35,32,29,27,82,57,32,29.89,29.52,29.32,10,10,3,33,20,39,T,2,Rain-Snow,277
2014-3-19,59,44,28,29,26,21,85,55,25,30.23,30.12,29.93,10,10,9,29,12,36,T,2,Snow,299
2014-3-20,74,51,28,26,18,10,69,39,9,30.12,29.95,29.82,10,10,10,25,9,30,0.00,0,,218
2014-3-21,66,53,39,30,26,20,57,38,19,30.24,29.91,29.69,10,10,10,31,17,37,0.00,0,,11
2014-3-22,46,37,27,28,16,6,70,45,20,30.55,30.36,30.25,10,10,9,26,17,34,T,3,Snow,20
2014-3-23,46,31,16,19,14,9,88,58,28,30.59,30.46,30.27,10,10,10,15,8,,T,2,,32
2014-3-24,51,40,28,35,23,15,89,62,34,30.32,30.26,30.22,10,7,0,18,7,25,0.02,5,Fog-Rain-Snow,25
2014-3-25,47,36,25,27,16,7,78,52,25,30.50,30.35,30.16,10,10,10,21,9,24,0.00,3,Snow,350
2014-3-26,59,46,32,41,31,14,89,61,32,30.14,29.84,29.56,10,8,3,46,25,57,0.10,4,Rain-Snow,170
2014-3-27,65,49,33,51,42,28,86,65,43,29.91,29.53,29.33,10,10,9,33,21,41,T,3,Rain,257
2014-3-28,55,42,28,34,28,23,85,66,46,30.19,30.07,29.92,10,10,8,14,5,18,T,2,Rain,355
2014-3-29,65,45,25,33,29,22,85,56,26,30.37,30.24,30.09,10,8,3,15,8,20,0.00,0,,141
2014-3-30,77,63,49,36,33,28,50,36,21,30.08,29.84,29.62,10,9,5,38,24,47,0.00,0,,179
2014-3-31,72,54,36,43,31,20,52,36,20,30.06,29.70,29.49,10,10,8,39,24,49,0.00,3,Rain,258